createdAt,value
2022-11-06T00:02:00.513Z,74.22
2022-11-06T00:04:31.192Z,74.01
2022-11-06T00:06:58.432Z,74.08
2022-11-06T00:09:25.704Z,74.06
2022-11-06T00:11:53.381Z,74.18
2022-11-06T00:14:20.807Z,73.66
2022-11-06T00:16:48.418Z,73.25
2022-11-06T00:19:16.996Z,73.10
2022-11-06T00:21:44.921Z,72.60
2022-11-06T00:24:14.113Z,72.86
2022-11-06T00:26:42.876Z,73.06
2022-11-06T00:29:14.894Z,73.18
2022-11-06T00:31:42.753Z,72.70
2022-11-06T00:34:11.224Z,72.61
2022-11-06T00:36:38.955Z,72.78
2022-11-06T00:39:06.726Z,72.48
2022-11-06T00:41:34.066Z,72.91
2022-11-06T00:44:02.613Z,73.23
2022-11-06T00:46:30.356Z,73.07
2022-11-06T00:48:57.896Z,72.75
2022-11-06T00:51:28.326Z,72.48
2022-11-06T00:53:59.285Z,72.93
2022-11-06T00:56:27.642Z,72.58
2022-11-06T00:58:55.423Z,72.70
2022-11-06T01:01:25.403Z,72.43
2022-11-06T01:04:07.552Z,72.19
2022-11-06T01:06:38.383Z,72.49
2022-11-06T01:09:07.233Z,72.68
2022-11-06T01:11:59.301Z,73.28
2022-11-06T01:14:24.364Z,73.42
2022-11-06T01:16:52.274Z,72.71
2022-11-06T01:19:21.227Z,74.03
2022-11-06T01:21:50.689Z,73.56
2022-11-06T01:24:24.981Z,73.86
2022-11-06T01:27:20.298Z,73.77
2022-11-06T01:29:41.805Z,73.90
2022-11-06T01:32:09.553Z,74.63
2022-11-06T01:34:37.084Z,75.35
2022-11-06T01:37:05.206Z,76.16
2022-11-06T01:39:32.753Z,76.97
2022-11-06T01:42:00.110Z,77.38
2022-11-06T01:44:34.000Z,77.74
2022-11-06T01:47:04.624Z,77.01
2022-11-06T01:49:37.818Z,77.13
2022-11-06T01:52:11.690Z,77.88
2022-11-06T01:54:42.039Z,78.28
2022-11-06T01:57:11.543Z,78.21
2022-11-06T01:59:43.602Z,77.90
2022-11-06T02:02:12.274Z,78.63
2022-11-06T02:04:45.832Z,78.30
2022-11-06T02:07:13.450Z,78.90
2022-11-06T02:09:41.624Z,79.07
2022-11-06T02:12:15.040Z,79.35
2022-11-06T02:14:51.173Z,79.71
2022-11-06T02:18:01.480Z,80.28
2022-11-06T02:20:54.753Z,80.80
2022-11-06T02:23:37.812Z,81.35
2022-11-06T02:26:12.297Z,81.27
2022-11-06T02:28:47.208Z,81.19
2022-11-06T02:31:21.282Z,81.62
2022-11-06T02:33:54.577Z,81.74
2022-11-06T02:36:29.414Z,82.04
2022-11-06T02:39:01.065Z,82.03
2022-11-06T02:41:39.856Z,82.34
2022-11-06T02:44:10.527Z,82.85
2022-11-06T02:46:46.825Z,82.64
2022-11-06T02:49:41.466Z,83.00
2022-11-06T02:52:14.465Z,83.82
2022-11-06T02:54:48.017Z,83.91
2022-11-06T02:57:18.553Z,83.65
2022-11-06T02:59:54.583Z,84.58
2022-11-06T03:02:29.588Z,85.03
2022-11-06T03:05:26.099Z,85.85
2022-11-06T03:08:20.953Z,85.57
2022-11-06T03:11:12.244Z,86.34
2022-11-06T03:13:49.375Z,86.54
2022-11-06T03:16:44.629Z,87.11
2022-11-06T03:19:24.663Z,86.84
2022-11-06T03:22:14.495Z,86.85
2022-11-06T03:24:48.262Z,87.02
2022-11-06T03:27:20.803Z,87.44
2022-11-06T03:30:05.917Z,87.45
2022-11-06T03:32:36.432Z,86.54
2022-11-06T03:35:13.280Z,87.31
2022-11-06T03:37:48.740Z,87.01
2022-11-06T03:40:19.087Z,87.15
2022-11-06T03:42:49.533Z,87.18
2022-11-06T03:45:22.523Z,86.65
2022-11-06T03:48:08.317Z,86.66
2022-11-06T03:50:43.149Z,86.08
2022-11-06T03:53:18.141Z,85.97
2022-11-06T03:55:52.275Z,86.20
2022-11-06T03:58:24.866Z,86.14
2022-11-06T04:00:55.352Z,85.94
2022-11-06T04:03:38.298Z,86.13
2022-11-06T04:06:14.907Z,86.92
2022-11-06T04:09:04.084Z,86.22
2022-11-06T04:11:53.940Z,86.49
2022-11-06T04:14:26.090Z,86.58
2022-11-06T04:16:57.960Z,86.51
2022-11-06T04:19:25.655Z,86.12
2022-11-06T04:22:17.341Z,86.44
2022-11-06T04:25:26.829Z,86.57
2022-11-06T04:28:06.169Z,86.58
2022-11-06T04:31:03.941Z,87.50
2022-11-06T04:33:49.810Z,87.02
2022-11-06T04:37:00.319Z,86.58
2022-11-06T04:39:37.090Z,86.85
2022-11-06T04:42:34.115Z,86.38
2022-11-06T04:45:22.231Z,86.02
2022-11-06T04:47:52.384Z,85.66
2022-11-06T04:50:22.865Z,85.59
2022-11-06T04:52:52.162Z,85.85
2022-11-06T04:55:22.206Z,86.16
2022-11-06T04:57:49.526Z,86.27
2022-11-06T05:00:18.135Z,85.50
2022-11-06T05:02:45.407Z,85.85
2022-11-06T05:05:13.053Z,86.19
2022-11-06T05:09:16.397Z,84.84
2022-11-06T05:11:44.362Z,84.84
2022-11-06T05:14:11.732Z,85.28
2022-11-06T05:16:39.131Z,85.01
2022-11-06T05:19:07.011Z,84.33
2022-11-06T05:21:52.781Z,83.55
2022-11-06T05:24:20.424Z,83.08
2022-11-06T05:26:47.738Z,83.18
2022-11-06T05:29:15.333Z,82.67
2022-11-06T05:31:43.348Z,82.32
2022-11-06T05:34:10.849Z,82.40
2022-11-06T05:36:38.158Z,82.03
2022-11-06T05:39:05.888Z,81.93
2022-11-06T05:41:33.212Z,81.52
2022-11-06T05:44:00.674Z,81.89
2022-11-06T05:46:48.254Z,81.71
2022-11-06T05:49:18.948Z,81.67
2022-11-06T05:51:46.885Z,81.78
2022-11-06T05:54:15.997Z,82.08
2022-11-06T05:56:43.688Z,82.39
2022-11-06T05:59:11.842Z,82.25
2022-11-06T06:01:39.528Z,83.31
2022-11-06T06:04:07.867Z,83.42
2022-11-06T06:06:36.172Z,82.89
2022-11-06T06:09:03.520Z,83.55
2022-11-06T06:11:31.156Z,83.64
2022-11-06T06:13:58.531Z,81.16
2022-11-06T06:16:25.903Z,81.62
2022-11-06T06:18:54.743Z,81.62
2022-11-06T06:21:22.986Z,82.00
2022-11-06T06:23:50.418Z,81.61
2022-11-06T06:26:18.411Z,81.85
2022-11-06T06:28:50.181Z,82.05
2022-11-06T06:31:18.433Z,82.83
2022-11-06T06:33:46.158Z,84.85
2022-11-06T06:36:13.598Z,84.13
2022-11-06T06:38:41.667Z,84.44
2022-11-06T06:41:10.282Z,84.52
2022-11-06T06:43:37.891Z,83.53
2022-11-06T06:46:07.518Z,84.27
2022-11-06T06:51:28.498Z,84.38
2022-11-06T06:53:56.031Z,84.70
2022-11-06T06:56:25.211Z,84.18
2022-11-06T06:58:54.627Z,82.85
2022-11-06T07:01:52.203Z,83.39
2022-11-06T07:04:21.445Z,83.03
2022-11-06T07:32:39.458Z,81.58
2022-11-06T07:35:08.280Z,81.16
2022-11-06T07:37:36.979Z,82.07
2022-11-06T07:40:04.907Z,85.67
2022-11-06T07:42:33.187Z,90.11
2022-11-06T07:45:01.312Z,92.53
2022-11-06T07:47:31.004Z,92.60
2022-11-06T07:49:58.862Z,93.15
2022-11-06T07:52:36.487Z,92.54
2022-11-06T07:55:07.887Z,92.14
2022-11-06T07:57:38.360Z,91.69
2022-11-06T08:00:07.259Z,91.27
2022-11-06T08:02:41.447Z,91.05
2022-11-06T08:05:10.262Z,90.94
2022-11-06T08:07:37.757Z,91.23
2022-11-06T08:10:05.760Z,91.78
2022-11-06T08:12:33.528Z,91.97
2022-11-06T08:15:00.981Z,92.03
2022-11-06T08:17:30.257Z,92.20
2022-11-06T08:19:58.023Z,92.91
2022-11-06T08:22:25.498Z,91.75
2022-11-06T08:24:52.902Z,91.94
2022-11-06T08:27:20.752Z,91.83
2022-11-06T08:29:48.098Z,90.64
2022-11-06T08:32:15.475Z,90.18
2022-11-06T08:34:43.297Z,90.02
2022-11-06T08:37:11.555Z,90.67
2022-11-06T08:39:39.147Z,90.44
2022-11-06T08:42:07.980Z,90.15
2022-11-06T08:44:35.464Z,90.10
2022-11-06T08:47:02.817Z,89.99
2022-11-06T08:49:30.523Z,89.99
2022-11-06T08:51:57.906Z,89.85
2022-11-06T08:54:25.298Z,89.89
2022-11-06T08:56:53.009Z,89.52
2022-11-06T08:59:20.393Z,89.72
2022-11-06T09:01:47.863Z,89.23
2022-11-06T09:04:15.737Z,88.55
2022-11-06T09:06:43.177Z,88.24
2022-11-06T09:09:10.796Z,88.07
2022-11-06T09:11:38.584Z,87.18
2022-11-06T09:14:05.969Z,87.25
2022-11-06T09:16:33.366Z,86.92
2022-11-06T09:19:01.266Z,86.30
2022-11-06T09:21:28.668Z,86.20
2022-11-06T09:23:56.109Z,86.37
2022-11-06T09:26:23.825Z,85.90
2022-11-06T09:28:51.470Z,85.06
2022-11-06T09:31:18.820Z,85.28
2022-11-06T09:33:46.577Z,85.18
2022-11-06T09:36:13.925Z,84.65
2022-11-06T09:38:41.267Z,84.92
2022-11-06T09:41:23.075Z,84.79
2022-11-06T09:44:17.857Z,84.11
2022-11-06T09:46:47.715Z,84.61
2022-11-06T09:49:30.354Z,84.42
2022-11-06T09:52:39.698Z,84.83
2022-11-06T09:55:28.289Z,84.79
2022-11-06T09:58:01.439Z,84.31
2022-11-06T10:00:29.521Z,84.36
2022-11-06T10:03:24.784Z,83.30
2022-11-06T10:05:53.893Z,83.94
2022-11-06T10:08:24.473Z,83.68
2022-11-06T10:11:10.686Z,83.06
2022-11-06T10:14:08.008Z,83.24
2022-11-06T10:17:01.077Z,83.44
2022-11-06T10:19:40.329Z,83.02
2022-11-06T10:22:07.709Z,82.46
2022-11-06T10:25:04.874Z,82.62
2022-11-06T10:27:48.626Z,83.02
2022-11-06T10:30:19.049Z,82.52
2022-11-06T10:33:08.840Z,83.02
2022-11-06T10:35:51.361Z,83.24
2022-11-06T10:38:25.180Z,83.15
2022-11-06T10:40:55.243Z,83.19
2022-11-06T10:43:46.950Z,83.08
2022-11-06T10:46:23.853Z,83.05
2022-11-06T10:48:56.222Z,82.91
2022-11-06T10:51:26.905Z,82.53
2022-11-06T10:54:07.203Z,82.27
2022-11-06T10:56:47.943Z,81.45
2022-11-06T10:59:16.611Z,81.77
2022-11-06T11:01:44.565Z,81.78
2022-11-06T11:04:12.198Z,81.57
2022-11-06T11:06:41.066Z,81.77
2022-11-06T11:09:33.007Z,81.61
2022-11-06T11:12:00.959Z,81.22
2022-11-06T11:14:31.103Z,81.37
2022-11-06T11:17:01.623Z,81.29
2022-11-06T11:19:38.372Z,81.75
2022-11-06T11:22:17.650Z,81.28
2022-11-06T11:25:03.016Z,80.42
2022-11-06T11:27:35.293Z,80.65
2022-11-06T11:30:06.203Z,80.70
2022-11-06T11:32:34.103Z,80.45
2022-11-06T11:35:07.541Z,80.15
2022-11-06T11:37:36.306Z,79.63
2022-11-06T11:40:36.648Z,79.39
2022-11-06T11:43:19.869Z,80.04
2022-11-06T11:46:05.592Z,79.13
2022-11-06T11:48:46.241Z,78.43
2022-11-06T11:51:28.323Z,78.55
2022-11-06T11:54:16.302Z,78.59
2022-11-06T11:57:18.110Z,77.60
2022-11-06T11:59:57.130Z,78.61
2022-11-06T12:02:37.334Z,77.37
2022-11-06T12:05:12.955Z,77.52
2022-11-06T12:07:54.585Z,77.69
2022-11-06T12:10:30.984Z,77.31
2022-11-06T12:13:00.037Z,77.98
2022-11-06T12:15:34.144Z,78.19
2022-11-06T12:18:06.827Z,78.16
2022-11-06T12:20:40.085Z,77.46
2022-11-06T12:23:15.060Z,77.82
2022-11-06T12:25:48.218Z,77.31
2022-11-06T12:28:19.176Z,77.53
2022-11-06T12:30:54.440Z,76.83
2022-11-06T12:33:52.040Z,76.61
2022-11-06T12:36:19.008Z,76.89
2022-11-06T12:39:04.315Z,76.76
2022-11-06T12:41:36.953Z,77.30
2022-11-06T12:44:09.761Z,77.37
2022-11-06T12:46:47.829Z,76.74
2022-11-06T12:49:21.391Z,76.21
2022-11-06T12:52:20.343Z,76.29
2022-11-06T12:55:14.285Z,76.57
2022-11-06T12:58:04.686Z,76.95
2022-11-06T13:00:41.176Z,76.90
2022-11-06T13:03:28.405Z,76.80
2022-11-06T13:05:56.091Z,76.71
2022-11-06T13:08:43.107Z,76.62
2022-11-06T13:11:33.543Z,76.97
2022-11-06T13:14:09.781Z,77.48
2022-11-06T13:17:06.255Z,77.93
2022-11-06T13:20:07.989Z,78.92
2022-11-06T13:22:59.060Z,80.58
2022-11-06T13:25:35.130Z,81.64
2022-11-06T13:28:17.192Z,83.44
2022-11-06T13:30:46.236Z,84.48
2022-11-06T13:33:31.376Z,86.10
2022-11-06T13:36:00.556Z,87.38
2022-11-06T13:38:30.613Z,87.57
2022-11-06T13:41:03.838Z,89.13
2022-11-06T13:43:41.567Z,89.54
2022-11-06T13:46:18.450Z,90.17
2022-11-06T13:48:59.642Z,90.49
2022-11-06T13:51:37.929Z,91.44
2022-11-06T13:54:35.657Z,90.20
2022-11-06T13:57:12.643Z,90.41
2022-11-06T14:00:03.721Z,90.41
2022-11-06T14:03:10.113Z,89.84
2022-11-06T14:09:24.934Z,89.20
2022-11-06T14:11:56.933Z,89.20
2022-11-06T14:14:30.544Z,90.37
2022-11-06T14:17:14.777Z,89.85
2022-11-06T14:19:49.135Z,90.40
2022-11-06T14:22:36.549Z,90.45
2022-11-06T14:25:42.296Z,89.61
2022-11-06T14:28:10.176Z,89.48
2022-11-06T14:31:10.883Z,89.01
2022-11-06T14:33:44.148Z,88.38
2022-11-06T14:36:35.928Z,87.41
2022-11-06T14:39:09.779Z,87.23
2022-11-06T14:41:38.601Z,86.49
2022-11-06T14:44:15.890Z,87.53
2022-11-06T14:46:50.725Z,87.78
2022-11-06T14:49:42.332Z,87.17
2022-11-06T14:52:14.067Z,87.07
2022-11-06T14:55:09.739Z,86.05
2022-11-06T14:57:43.624Z,86.27
2022-11-06T15:00:35.630Z,86.54
2022-11-06T15:03:06.340Z,85.91
2022-11-06T15:05:41.842Z,86.19
2022-11-06T15:08:10.582Z,85.80
2022-11-06T15:10:44.325Z,85.41
2022-11-06T15:13:18.348Z,85.10
2022-11-06T15:15:50.549Z,84.40
2022-11-06T15:18:24.171Z,84.25
2022-11-06T15:20:57.430Z,84.46
2022-11-06T15:23:59.049Z,84.95
2022-11-06T15:26:41.287Z,84.82
2022-11-06T15:29:18.318Z,84.63
2022-11-06T15:32:02.953Z,84.92
2022-11-06T15:34:36.836Z,84.89
2022-11-06T15:37:04.581Z,84.34
2022-11-06T15:39:59.106Z,84.38
2022-11-06T15:42:34.738Z,84.41
2022-11-06T15:45:12.979Z,84.81
2022-11-06T15:47:40.742Z,85.47
2022-11-06T15:50:21.582Z,85.42
2022-11-06T15:52:50.443Z,85.19
2022-11-06T15:55:29.529Z,84.92
2022-11-06T15:58:09.009Z,84.95
2022-11-06T16:00:39.121Z,84.83
2022-11-06T16:03:06.906Z,85.02
2022-11-06T16:05:37.168Z,85.19
2022-11-06T16:08:06.951Z,85.59
2022-11-06T16:10:37.351Z,85.69
2022-11-06T16:13:05.561Z,85.81
2022-11-06T16:15:45.260Z,85.62
2022-11-06T16:18:16.401Z,85.22
2022-11-06T16:21:05.870Z,85.55
2022-11-06T16:23:48.662Z,85.78
2022-11-06T16:26:37.583Z,85.37
2022-11-06T16:29:15.870Z,85.01
2022-11-06T16:31:44.139Z,85.05
2022-11-06T16:34:37.737Z,85.18
2022-11-06T16:37:08.311Z,85.32
2022-11-06T16:39:51.034Z,85.44
2022-11-06T16:42:22.460Z,86.64
2022-11-06T16:45:13.217Z,86.44
2022-11-06T16:47:40.637Z,86.16
2022-11-06T16:50:45.990Z,86.80
2022-11-06T16:53:19.630Z,87.85
2022-11-06T16:56:06.788Z,87.10
2022-11-06T16:58:56.664Z,86.88
2022-11-06T17:01:25.120Z,86.63
2022-11-06T17:03:59.624Z,86.95
2022-11-06T17:06:32.564Z,86.31
2022-11-06T17:09:35.462Z,86.42
2022-11-06T17:12:03.829Z,86.36
2022-11-06T17:14:32.807Z,85.67
2022-11-06T17:17:01.560Z,85.44
2022-11-06T17:19:30.071Z,85.08
2022-11-06T17:21:58.345Z,84.92
2022-11-06T17:24:41.607Z,85.37
2022-11-06T17:27:09.425Z,85.33
2022-11-06T17:29:37.035Z,85.00
2022-11-06T17:32:04.886Z,84.26
2022-11-06T17:34:32.729Z,84.24
2022-11-06T17:37:00.092Z,84.26
2022-11-06T17:39:27.526Z,85.26
2022-11-06T17:41:55.466Z,84.71
2022-11-06T17:44:22.903Z,85.19
2022-11-06T17:46:50.355Z,85.09
2022-11-06T17:49:18.891Z,84.69
2022-11-06T17:51:52.909Z,85.09
2022-11-06T17:54:23.713Z,84.97
2022-11-06T17:56:51.689Z,86.46
2022-11-06T17:59:19.206Z,86.52
2022-11-06T18:01:53.390Z,86.61
2022-11-06T18:04:23.000Z,86.72
2022-11-06T18:06:52.270Z,86.89
2022-11-06T18:09:21.030Z,86.82
2022-11-06T18:11:52.830Z,86.80
2022-11-06T18:14:21.621Z,87.27
2022-11-06T18:16:49.400Z,86.94
2022-11-06T18:19:21.031Z,86.77
2022-11-06T18:21:49.361Z,86.91
2022-11-06T18:24:16.910Z,87.12
2022-11-06T18:26:44.398Z,87.20
2022-11-06T18:29:13.023Z,86.91
2022-11-06T18:31:41.361Z,87.08
2022-11-06T18:34:18.414Z,86.70
2022-11-06T18:36:50.263Z,86.92
2022-11-06T18:39:18.307Z,86.88
2022-11-06T18:41:45.784Z,87.03
2022-11-06T18:44:16.247Z,87.27
2022-11-06T18:46:43.834Z,87.24
2022-11-06T18:49:12.593Z,86.95
2022-11-06T18:51:40.768Z,86.96
2022-11-06T18:54:10.850Z,86.45
2022-11-06T18:56:39.063Z,86.54
2022-11-06T18:59:09.054Z,87.86
2022-11-06T19:01:36.573Z,87.50
2022-11-06T19:04:05.138Z,87.14
2022-11-06T19:06:32.944Z,87.28
2022-11-06T19:09:00.418Z,87.15
2022-11-06T19:11:27.839Z,87.19
2022-11-06T19:13:55.605Z,87.38
2022-11-06T19:16:23.010Z,87.42
2022-11-06T19:21:32.803Z,87.18
2022-11-06T19:24:04.477Z,86.71
2022-11-06T19:26:35.341Z,86.98
2022-11-06T19:29:05.466Z,86.35
2022-11-06T19:31:33.603Z,86.53
2022-11-06T19:34:02.150Z,85.87
2022-11-06T19:36:30.987Z,85.81
2022-11-06T19:38:59.153Z,85.39
2022-11-06T19:41:27.940Z,85.15
2022-11-06T19:43:55.557Z,84.61
2022-11-06T19:46:28.220Z,85.24
2022-11-06T19:48:58.392Z,85.11
2022-11-06T19:51:26.138Z,84.41
2022-11-06T19:53:54.329Z,83.81
2022-11-06T19:56:22.319Z,84.16
2022-11-06T19:58:50.891Z,85.80
2022-11-06T20:01:20.204Z,86.42
2022-11-06T20:03:48.042Z,86.52
2022-11-06T20:06:16.754Z,86.47
2022-11-06T20:08:48.398Z,86.89
2022-11-06T20:11:16.761Z,85.94
2022-11-06T20:13:45.756Z,86.19
2022-11-06T20:16:17.120Z,86.24
2022-11-06T20:18:51.334Z,86.15
2022-11-06T20:21:19.126Z,86.19
2022-11-06T20:23:46.893Z,86.92
2022-11-06T20:26:15.268Z,86.75
2022-11-06T20:28:42.825Z,86.13
2022-11-06T20:31:12.214Z,85.49
2022-11-06T20:33:40.358Z,85.45
2022-11-06T20:36:15.365Z,85.32
2022-11-06T20:38:46.751Z,84.44
2022-11-06T20:41:16.577Z,85.26
2022-11-06T20:43:45.168Z,85.27
2022-11-06T20:46:14.101Z,85.98
2022-11-06T20:48:43.132Z,85.85
2022-11-06T20:51:20.501Z,85.31
2022-11-06T20:53:47.912Z,85.16
2022-11-06T20:56:18.800Z,85.25
2022-11-06T20:58:47.105Z,85.02
2022-11-06T21:01:18.371Z,84.79
2022-11-06T21:03:47.770Z,84.54
2022-11-06T21:06:15.996Z,84.18
2022-11-06T21:08:43.939Z,83.92
2022-11-06T21:11:18.249Z,85.08
2022-11-06T21:13:48.321Z,85.46
2022-11-06T21:16:24.914Z,87.15
2022-11-06T21:18:52.816Z,87.81
2022-11-06T21:21:25.363Z,87.98
2022-11-06T21:23:53.882Z,88.02
2022-11-06T21:26:27.008Z,89.02
2022-11-06T21:28:55.957Z,89.50
2022-11-06T21:31:27.358Z,88.38
2022-11-06T21:33:56.325Z,87.35
2022-11-06T21:36:26.797Z,87.62
2022-11-06T21:38:56.944Z,87.93
2022-11-06T21:41:26.668Z,88.03
2022-11-06T21:43:54.083Z,87.56
2022-11-06T21:46:22.362Z,87.45
2022-11-06T21:48:50.841Z,87.49
2022-11-06T21:51:24.098Z,87.05
2022-11-06T21:54:10.829Z,86.96
2022-11-06T21:56:39.812Z,86.81
2022-11-06T21:59:10.244Z,87.01
2022-11-06T22:01:38.227Z,86.12
2022-11-06T22:04:06.789Z,87.72
2022-11-06T22:06:34.458Z,87.30
2022-11-06T22:09:03.065Z,87.59
2022-11-06T22:11:33.945Z,86.68
2022-11-06T22:14:04.273Z,87.06
2022-11-06T22:16:34.896Z,86.57
2022-11-06T22:19:02.408Z,86.59
2022-11-06T22:21:30.942Z,86.86
2022-11-06T22:23:58.857Z,86.36
2022-11-06T22:26:29.930Z,86.72
2022-11-06T22:29:00.136Z,86.98
2022-11-06T22:31:28.837Z,88.18
2022-11-06T22:33:57.191Z,88.77
2022-11-06T22:36:25.814Z,88.85
2022-11-06T22:38:53.786Z,89.08
2022-11-06T22:41:24.021Z,89.23
2022-11-06T22:43:51.993Z,89.31
2022-11-06T22:46:22.680Z,88.84
2022-11-06T22:48:51.950Z,88.31
2022-11-06T22:51:25.626Z,88.26
2022-11-06T22:53:53.414Z,87.28
2022-11-06T22:56:22.786Z,86.55
2022-11-06T22:59:01.338Z,86.60
2022-11-06T23:01:31.039Z,87.79
2022-11-06T23:04:03.171Z,87.97
2022-11-06T23:06:31.762Z,88.10
2022-11-06T23:08:59.289Z,87.96
2022-11-06T23:11:28.663Z,88.19
2022-11-06T23:13:57.675Z,88.07
2022-11-06T23:16:45.549Z,87.73
2022-11-06T23:19:16.197Z,88.14
2022-11-06T23:21:43.796Z,88.59
2022-11-06T23:24:11.774Z,89.21
2022-11-06T23:26:39.844Z,89.64
2022-11-06T23:29:08.316Z,89.03
2022-11-06T23:31:35.695Z,89.34
2022-11-06T23:34:03.480Z,90.21
2022-11-06T23:36:30.825Z,90.52
2022-11-06T23:38:58.183Z,88.44
2022-11-06T23:41:45.720Z,88.58
2022-11-06T23:44:33.496Z,88.96
2022-11-06T23:47:02.082Z,89.58
2022-11-06T23:49:29.695Z,89.27
2022-11-06T23:51:57.197Z,89.91
2022-11-06T23:54:25.706Z,90.35
2022-11-06T23:56:53.062Z,89.95
2022-11-06T23:59:20.987Z,90.42
